Home > Products > Valid Products > TAF

000
FTUS45 KGGW 041100 RRA
TAFGDV
TAF
KGDV 041145Z 0412/0512 VRB04KT 6SM HZ SCT240
     FM042100 23011KT P6SM VCTS SCT100CB
     FM050300 31009KT P6SM BKN100
     FM050500 01013KT P6SM VCSH BKN120
      AMD LTD TO CLD VIS AND WIND=



000
FTUS45 KGGW 041100 RRA
TAFGDV
TAF
KGDV 041145Z 0412/0512 VRB04KT 6SM HZ SCT240
     FM042100 23011KT P6SM VCTS SCT100CB
     FM050300 31009KT P6SM BKN100
     FM050500 01013KT P6SM VCSH BKN120
      AMD LTD TO CLD VIS AND WIND=



000
FTUS45 KGGW 041100 RRA
TAFSDY
TAF
KSDY 041145Z 0412/0512 VRB05KT 4SM HZ SCT120
     FM042000 VRB05KT P6SM VCTS SCT120CB
     FM050200 36009KT P6SM BKN100
     FM050600 35010KT P6SM VCSH BKN120
      AMD LTD TO CLD VIS AND WIND=



000
FTUS45 KGGW 041100 RRA
TAFGGW
TAF
KGGW 041145Z 0412/0512 11009KT 6SM HZ FEW250
     FM041800 29010KT P6SM SCT150
     FM050000 33014KT P6SM VCTS SCT100CB
     FM050500 01010KT P6SM VCSH BKN045=



000
FTUS45 KGGW 041100 RRA
TAFOLF
TAF
KOLF 041145Z 0412/0512 VRB04KT 3SM HZ SCT140
     FM041800 25009KT P6SM VCSH SCT110
     FM050000 35014KT P6SM VCTS SCT100CB
     FM050400 35013KT P6SM VCSH BKN120=



000
FTUS45 KGGW 041100 RRA
TAFOLF
TAF
KOLF 041145Z 0412/0512 VRB04KT 3SM HZ SCT140
     FM041800 25009KT P6SM VCSH SCT110
     FM050000 35014KT P6SM VCTS SCT100CB
     FM050400 35013KT P6SM VCSH BKN120=



000
FTUS45 KGGW 040500
TAFSDY
TAF
KSDY 040525Z 0406/0506 VRB05KT 6SM HZ SCT120
     FM041800 VRB05KT P6SM VCSH SCT120
     FM050000 27009KT P6SM VCTS BKN100CB
      AMD LTD TO CLD VIS AND WIND=



000
FTUS45 KGGW 040500
TAFGGW
TAF
KGGW 040525Z 0406/0506 11009KT 6SM HZ FEW250
     FM041800 25008KT P6SM SCT150
     FM050000 33016KT P6SM VCTS SCT100CB=



000
FTUS45 KGGW 040500
TAFGDV
TAF
KGDV 040525Z 0406/0506 VRB04KT 6SM HZ SCT240
     FM041800 VRB04KT P6SM VCSH SCT140
     FM050000 28009KT P6SM VCTS BKN100CB
      AMD LTD TO CLD VIS AND WIND=



000
FTUS45 KGGW 040500
TAFGDV
TAF
KGDV 040525Z 0406/0506 VRB04KT 6SM HZ SCT240
     FM041800 VRB04KT P6SM VCSH SCT140
     FM050000 28009KT P6SM VCTS BKN100CB
      AMD LTD TO CLD VIS AND WIND=



000
FTUS45 KGGW 040500
TAFOLF
TAF
KOLF 040525Z 0406/0506 VRB04KT 5SM HZ SCT180
     FM041800 VRB06KT P6SM VCSH SCT150
     FM050000 31014KT P6SM VCTS SCT100CB
     FM050300 35013KT P6SM SCT180=



000
FTUS45 KGGW 040500
TAFOLF
TAF
KOLF 040525Z 0406/0506 VRB04KT 5SM HZ SCT180
     FM041800 VRB06KT P6SM VCSH SCT150
     FM050000 31014KT P6SM VCTS SCT100CB
     FM050300 35013KT P6SM SCT180=



000
FTUS45 KGGW 032300
TAFGGW
TAF
KGGW 032333Z 0400/0424 12008KT 6SM HZ FEW250
     FM040300 14007KT 3SM HZ FEW250
     FM041400 25008KT 6SM HZ SCT100
     FM041800 30010KT 6SM HZ SCT100=



000
FTUS45 KGGW 032300
TAFOLF
TAF
KOLF 032333Z 0400/0424 VRB04KT 6SM HZ SCT210
     FM040300 VRB06KT 3SM HZ FEW250
     FM041400 VRB06KT 6SM HZ SCT100=



000
FTUS45 KGGW 032300
TAFSDY
TAF
KSDY 032333Z 0400/0424 VRB04KT 6SM HZ SCT070
     FM040300 VRB06KT 3SM HZ SCT200
     FM041400 VRB06KT 6SM HZ SCT250
      AMD LTD TO CLD VIS AND WIND=



000
FTUS45 KGGW 032300
TAFGDV
TAF
KGDV 032333Z 0400/0424 13008KT 6SM FU SCT070
     FM040300 12006KT 4SM FU SCT200
     FM041400 20006KT 6SM HZ SCT250
      AMD LTD TO CLD VIS AND WIND=



000
FTUS45 KGGW 032000 AAA
TAFOLF
TAF AMD
KOLF 032016Z 0320/0418 VRB06KT 6SM FU SCT080
     FM040300 VRB03KT 3SM FU SCT200=



000
FTUS45 KGGW 032000 AAA
TAFOLF
TAF AMD
KOLF 032016Z 0320/0418 VRB06KT 6SM FU SCT080
     FM040300 VRB03KT 3SM FU SCT200=



000
FTUS45 KGGW 032000 AAA
TAFGGW
TAF AMD
KGGW 032015Z 0320/0418 12008KT 6SM FU SCT080
     FM040300 12010KT 3SM FU BKN200=



000
FTUS45 KGGW 031700 CCA
TAFSDY
TAF COR
KSDY 031722Z 0318/0418 VRB04KT 6SM FU BKN070
     FM040300 VRB06KT 3SM FU SCT200
      AMD LTD TO CLD VIS AND WIND=



000
FTUS45 KGGW 031700 CCA
TAFGDV
TAF COR
KGDV 031722Z 0318/0418 13008KT 6SM FU BKN070
     FM040300 12006KT 6SM FU SCT200
      AMD LTD TO CLD VIS AND WIND=



000
FTUS45 KGGW 031700 CCA
TAFGDV
TAF COR
KGDV 031722Z 0318/0418 13008KT 6SM FU BKN070
     FM040300 12006KT 6SM FU SCT200
      AMD LTD TO CLD VIS AND WIND=



000
FTUS45 KGGW 031700 CCA
TAFGDV
TAF COR
KGDV 031722Z 0318/0418 13008KT 6SM FU BKN070
     FM040300 12006KT 6SM FU SCT200
      AMD LTD TO CLD VIS AND WIND=



000
FTUS45 KGGW 031700
TAFOLF
TAF
KOLF 031720Z 0318/0418 VRB06KT 3SM FU SCT200=



000
FTUS45 KGGW 031700
TAFGDV
TAF
KGDV 031720Z 0318/0418 14006KT 6SM FU SCT200
     FM032100 13008KT 6SM FU BKN070
     FM040300 12006KT 6SM FU SCT200
      AMD LTD TO CLD VIS AND WIND=



000
FTUS45 KGGW 031700
TAFOLF
TAF
KOLF 031720Z 0318/0418 VRB06KT 3SM FU SCT200=



000
FTUS45 KGGW 031700
TAFGGW
TAF
KGGW 031720Z 0318/0418 12008KT 5SM FU SCT200
     FM032100 12008KT 6SM FU SCT080
     FM040300 12010KT 3SM FU BKN200=



000
FTUS45 KGGW 031700
TAFGDV
TAF
KGDV 031720Z 0318/0418 14006KT 6SM FU SCT200
     FM032100 13008KT 6SM FU BKN070
     FM040300 12006KT 6SM FU SCT200
      AMD LTD TO CLD VIS AND WIND=



000
FTUS45 KGGW 031700
TAFSDY
TAF
KSDY 031720Z 0318/0418 VRB03KT 6SM FU SCT200
     FM032100 VRB04KT 6SM FU BKN070
     FM040300 VRB06KT 3SM FU SCT200
      AMD LTD TO CLD VIS AND WIND=



000
FTUS45 KGGW 031700
TAFOLF
TAF
KOLF 031720Z 0318/0418 VRB06KT 3SM FU SCT200=



000
FTUS45 KGGW 031700
TAFOLF
TAF
KOLF 031720Z 0318/0418 VRB06KT 3SM FU SCT200=



000
FTUS45 KGGW 031700
TAFGDV
TAF
KGDV 031720Z 0318/0418 14006KT 6SM FU SCT200
     FM032100 13008KT 6SM FU BKN070
     FM040300 12006KT 6SM FU SCT200
      AMD LTD TO CLD VIS AND WIND=



000
FTUS45 KGGW 031700
TAFGGW
TAF
KGGW 031720Z 0318/0418 12008KT 5SM FU SCT200
     FM032100 12008KT 6SM FU SCT080
     FM040300 12010KT 3SM FU BKN200=



000
FTUS45 KGGW 031700
TAFGDV
TAF
KGDV 031720Z 0318/0418 14006KT 6SM FU SCT200
     FM032100 13008KT 6SM FU BKN070
     FM040300 12006KT 6SM FU SCT200
      AMD LTD TO CLD VIS AND WIND=



000
FTUS45 KGGW 031700
TAFSDY
TAF
KSDY 031720Z 0318/0418 VRB03KT 6SM FU SCT200
     FM032100 VRB04KT 6SM FU BKN070
     FM040300 VRB06KT 3SM FU SCT200
      AMD LTD TO CLD VIS AND WIND=



000
FTUS45 KGGW 031400 AAB
TAFSDY
TAF AMD
KSDY 031426Z 0314/0412 VRB06KT 3SM FU SCT200
     FM032100 15006KT P6SM SCT070
     FM040300 18006KT P6SM SCT200
      AMD LTD TO CLD VIS AND WIND=



000
FTUS45 KGGW 031200 AAA
TAFSDY
TAF AMD
KSDY 031224Z 0312/0412 VRB06KT 1SM BR SCT005
     FM031500 VRB06KT 5SM FU SCT200
     FM031800 15006KT P6SM SCT070
     FM040300 18006KT P6SM SCT200
      AMD LTD TO CLD VIS AND WIND=



000
FTUS45 KGGW 031200 AAA
TAFSDY
TAF AMD
KSDY 031224Z 0312/0412 VRB06KT 1SM BR SCT005
     FM031500 VRB06KT 5SM FU SCT200
     FM031800 15006KT P6SM SCT070
     FM040300 18006KT P6SM SCT200
      AMD LTD TO CLD VIS AND WIND=



000
FTUS45 KGGW 031100
TAFSDY
TAF
KSDY 031128Z 0312/0412 VRB06KT 3/4SM BR OVC005
     FM031500 VRB06KT 5SM FU SCT200
     FM031800 15006KT P6SM SCT070
     FM040300 18006KT P6SM SCT200
      AMD LTD TO CLD VIS AND WIND=



000
FTUS45 KGGW 031100
TAFGGW
TAF
KGGW 031128Z 0312/0412 08007KT 2SM FU SCT250
     FM031500 VRB06KT 4SM FU SCT200
     FM031800 15006KT P6SM SCT080
     FM040300 11010KT P6SM SCT200=



000
FTUS45 KGGW 031100
TAFGDV
TAF
KGDV 031128Z 0312/0412 VRB06KT 6SM FU SCT250
     FM031600 15006KT P6SM SCT070
     FM040300 14006KT P6SM SCT200
      AMD LTD TO CLD VIS AND WIND=



000
FTUS45 KGGW 031100
TAFOLF
TAF
KOLF 031128Z 0312/0412 VRB06KT 1SM BR SCT250
     FM031500 VRB06KT 4SM FU SCT200
     FM031800 15006KT P6SM SCT070
     FM040300 VRB05KT P6SM SCT200=



000
FTUS45 KGGW 030900 AAA
TAFOLF
TAF AMD
KOLF 030947Z 0310/0406 VRB06KT 2SM FU SCT250
     FM031500 VRB06KT P6SM BKN250=



000
FTUS45 KGGW 030900 AAA
TAFOLF
TAF AMD
KOLF 030947Z 0310/0406 VRB06KT 2SM FU SCT250
     FM031500 VRB06KT P6SM BKN250=



000
FTUS45 KGGW 030500
TAFOLF
TAF
KOLF 030521Z 0306/0406 VRB06KT 4SM FU SCT250
     FM031500 VRB06KT P6SM BKN250=



000
FTUS45 KGGW 030500
TAFGDV
TAF
KGDV 030521Z 0306/0406 VRB06KT P6SM SCT250
     FM031500 VRB06KT P6SM BKN250
      AMD LTD TO CLD VIS AND WIND=



000
FTUS45 KGGW 030500
TAFSDY
TAF
KSDY 030521Z 0306/0406 VRB06KT P6SM SCT250
     FM030900 VRB06KT 5SM FU SCT250
     FM031500 VRB06KT P6SM BKN250
      AMD LTD TO CLD VIS AND WIND=



000
FTUS45 KGGW 030500
TAFGGW
TAF
KGGW 030521Z 0306/0406 07007KT 4SM FU SCT250
     FM031500 VRB06KT P6SM BKN250=



000
FTUS45 KGGW 030500
TAFOLF
TAF
KOLF 030521Z 0306/0406 VRB06KT 4SM FU SCT250
     FM031500 VRB06KT P6SM BKN250=



000
FTUS45 KGGW 030500
TAFGGW
TAF
KGGW 030521Z 0306/0406 07007KT 4SM FU SCT250
     FM031500 VRB06KT P6SM BKN250=



000
FTUS45 KGGW 030500
TAFSDY
TAF
KSDY 030521Z 0306/0406 VRB06KT P6SM SCT250
     FM030900 VRB06KT 5SM FU SCT250
     FM031500 VRB06KT P6SM BKN250
      AMD LTD TO CLD VIS AND WIND=



000
FTUS45 KGGW 030500
TAFGDV
TAF
KGDV 030521Z 0306/0406 VRB06KT P6SM SCT250
     FM031500 VRB06KT P6SM BKN250
      AMD LTD TO CLD VIS AND WIND=



000
FTUS45 KGGW 022300
TAFOLF
TAF
KOLF 022320Z 0300/0324 31007KT P6SM SCT060 BKN250
     FM030300 VRB06KT 5SM FU BKN250
     FM031500 VRB06KT P6SM BKN250=



000
FTUS45 KGGW 022300
TAFSDY
TAF
KSDY 022320Z 0300/0324 33008KT P6SM SCT070 BKN250
     FM030300 VRB06KT 5SM FU BKN250
     FM031500 VRB06KT P6SM BKN250
      AMD LTD TO CLD VIS AND WIND=



000
FTUS45 KGGW 022300
TAFGGW
TAF
KGGW 022320Z 0300/0324 30011KT P6SM SCT070 BKN250
     FM030300 VRB06KT 5SM FU BKN250
     FM031500 VRB06KT P6SM BKN250=



000
FTUS45 KGGW 022300
TAFGDV
TAF
KGDV 022320Z 0300/0324 34011KT P6SM BKN080
     FM030300 VRB06KT 5SM FU BKN250
     FM031500 VRB06KT P6SM BKN250
      AMD LTD TO CLD VIS AND WIND=



000
FTUS45 KGGW 022300
TAFOLF
TAF
KOLF 022320Z 0300/0324 31007KT P6SM SCT060 BKN250
     FM030300 VRB06KT 5SM FU BKN250
     FM031500 VRB06KT P6SM BKN250=



000
FTUS45 KGGW 022300
TAFGDV
TAF
KGDV 022320Z 0300/0324 34011KT P6SM BKN080
     FM030300 VRB06KT 5SM FU BKN250
     FM031500 VRB06KT P6SM BKN250
      AMD LTD TO CLD VIS AND WIND=



000
FTUS45 KGGW 021700
TAFGDV
TAF
KGDV 021728Z 0218/0318 35012KT 5SM FU BKN040
     FM030300 VRB04KT 5SM FU SCT070
     FM030600 00000KT P6SM FEW060
      AMD LTD TO CLD VIS AND WIND=



000
FTUS45 KGGW 021700
TAFOLF
TAF
KOLF 021728Z 0218/0318 34008KT 5SM FU BKN035
     FM022100 35007KT 5SM FU SCT060
     FM030300 VRB03KT 5SM FU SCT250=



000
FTUS45 KGGW 021700
TAFGGW
TAF
KGGW 021728Z 0218/0318 34010KT 5SM FU BKN020
     FM022000 34010KT 5SM FU BKN040
     FM030300 VRB04KT 5SM FU SCT250=



000
FTUS45 KGGW 021700
TAFOLF
TAF
KOLF 021728Z 0218/0318 34008KT 5SM FU BKN035
     FM022100 35007KT 5SM FU SCT060
     FM030300 VRB03KT 5SM FU SCT250=



000
FTUS45 KGGW 021700
TAFGDV
TAF
KGDV 021728Z 0218/0318 35012KT 5SM FU BKN040
     FM030300 VRB04KT 5SM FU SCT070
     FM030600 00000KT P6SM FEW060
      AMD LTD TO CLD VIS AND WIND=



000
FTUS45 KGGW 021700
TAFSDY
TAF
KSDY 021728Z 0218/0318 34009KT 3SM FU BKN040
     FM030300 VRB03KT 5SM FU SCT080
      AMD LTD TO CLD VIS AND WIND=



000
FTUS45 KGGW 021500 AAB
TAFGDV
TAF AMD
KGDV 021537Z 0216/0312 32012G18KT 5SM FU SKC
     FM021900 33011KT 5SM FU BKN070
     FM030300 VRB04KT P6SM BKN190
     FM030600 00000KT P6SM FEW190
      AMD LTD TO CLD VIS AND WIND=



000
FTUS45 KGGW 021500 AAB
TAFGDV
TAF AMD
KGDV 021537Z 0216/0312 32012G18KT 5SM FU SKC
     FM021900 33011KT 5SM FU BKN070
     FM030300 VRB04KT P6SM BKN190
     FM030600 00000KT P6SM FEW190
      AMD LTD TO CLD VIS AND WIND=



000
FTUS45 KGGW 021500 AAA
TAFOLF
TAF AMD
KOLF 021536Z 0216/0312 VRB06KT 5SM FU SCT020
     FM021900 34010KT 5SM FU BKN060
     FM030000 36007KT P6SM SCT140
     FM030300 VRB03KT P6SM SCT190=



000
FTUS45 KGGW 021500 AAA
TAFOLF
TAF AMD
KOLF 021536Z 0216/0312 VRB06KT 5SM FU SCT020
     FM021900 34010KT 5SM FU BKN060
     FM030000 36007KT P6SM SCT140
     FM030300 VRB03KT P6SM SCT190=



000
FTUS45 KGGW 021500 AAA
TAFSDY
TAF AMD
KSDY 021536Z 0216/0312 34008KT 5SM FU SCT020
     FM021800 34010KT 5SM FU BKN060
     FM030000 35008KT P6SM SCT130
     FM030300 VRB03KT P6SM SCT190
      AMD LTD TO CLD VIS AND WIND=



000
FTUS45 KGGW 021500 AAA
TAFOLF
TAF AMD
KOLF 021536Z 0216/0312 VRB06KT 5SM FU SCT020
     FM021900 34010KT 5SM FU BKN060
     FM030000 36007KT P6SM SCT140
     FM030300 VRB03KT P6SM SCT190=



000
FTUS45 KGGW 021500 AAA
TAFGGW
TAF AMD
KGGW 021535Z 0216/0312 33010KT 5SM FU SCT020
     FM021800 34010KT 5SM FU SCT060
     FM030000 34008KT P6SM SCT190=



000
FTUS45 KGGW 021500 AAA
TAFGGW
TAF AMD
KGGW 021535Z 0216/0312 33010KT 5SM FU SCT020
     FM021800 34010KT 5SM FU SCT060
     FM030000 34008KT P6SM SCT190=



000
FTUS45 KGGW 021300 AAA
TAFGDV
TAF AMD
KGDV 021344Z 0214/0312 32012KT P6SM SCT015
     FM021900 33011KT P6SM BKN070
     FM030300 VRB04KT P6SM BKN190
     FM030600 00000KT P6SM FEW190
      AMD LTD TO CLD VIS AND WIND=



000
FTUS45 KGGW 021300 AAA
TAFGDV
TAF AMD
KGDV 021344Z 0214/0312 32012KT P6SM SCT015
     FM021900 33011KT P6SM BKN070
     FM030300 VRB04KT P6SM BKN190
     FM030600 00000KT P6SM FEW190
      AMD LTD TO CLD VIS AND WIND=



000
FTUS45 KGGW 021100
TAFGDV
TAF
KGDV 021134Z 0212/0312 VRB05KT P6SM SCT010
      TEMPO 0212/0214 BKN010
     FM021500 33010KT P6SM SCT015
     FM021900 33011KT P6SM BKN070
     FM030300 VRB04KT P6SM BKN190
     FM030600 00000KT P6SM FEW190
      AMD LTD TO CLD VIS AND WIND=



000
FTUS45 KGGW 021100
TAFGGW
TAF
KGGW 021134Z 0212/0312 30006KT P6SM SCT015
      TEMPO 0213/0215 BKN015
     FM021500 33010KT P6SM SCT020
     FM021800 34010KT P6SM SCT060
     FM030000 34008KT P6SM SCT190=



000
FTUS45 KGGW 021100
TAFSDY
TAF
KSDY 021134Z 0212/0312 29007KT P6SM SCT015
     FM021500 34008KT P6SM SCT020
     FM021800 34010KT P6SM BKN060
     FM030000 35008KT P6SM SCT130
     FM030300 VRB03KT P6SM SCT190
      AMD LTD TO CLD VIS AND WIND=



000
FTUS45 KGGW 021100
TAFGDV
TAF
KGDV 021134Z 0212/0312 VRB05KT P6SM SCT010
      TEMPO 0212/0214 BKN010
     FM021500 33010KT P6SM SCT015
     FM021900 33011KT P6SM BKN070
     FM030300 VRB04KT P6SM BKN190
     FM030600 00000KT P6SM FEW190
      AMD LTD TO CLD VIS AND WIND=



000
FTUS45 KGGW 021100
TAFOLF
TAF
KOLF 021134Z 0212/0312 VRB05KT P6SM SCT015
      TEMPO 0214/0216 BKN015
     FM021600 32008KT P6SM SCT020
     FM021900 34010KT P6SM BKN060
     FM030000 36007KT P6SM SCT140
     FM030300 VRB03KT P6SM SCT190=



000
FTUS45 KGGW 021100
TAFOLF
TAF
KOLF 021134Z 0212/0312 VRB05KT P6SM SCT015
      TEMPO 0214/0216 BKN015
     FM021600 32008KT P6SM SCT020
     FM021900 34010KT P6SM BKN060
     FM030000 36007KT P6SM SCT140
     FM030300 VRB03KT P6SM SCT190=



000
FTUS45 KGGW 020500
TAFOLF
TAF
KOLF 020520Z 0206/0306 VRB05KT P6SM SCT250
     FM021500 31008KT P6SM SCT050
     FM030300 VRB03KT P6SM SCT250=



000
FTUS45 KGGW 020500
TAFGGW
TAF
KGGW 020520Z 0206/0306 VRB05KT P6SM SCT250
     FM021500 31011KT P6SM SCT200
     FM030000 34009KT P6SM SCT200
     FM030300 VRB04KT P6SM SCT200=



000
FTUS45 KGGW 020500
TAFGDV
TAF
KGDV 020520Z 0206/0306 VRB06KT P6SM SCT250
     FM021500 32010KT P6SM SCT080
      AMD LTD TO CLD VIS AND WIND=



000
FTUS45 KGGW 020500
TAFOLF
TAF
KOLF 020520Z 0206/0306 VRB05KT P6SM SCT250
     FM021500 31008KT P6SM SCT050
     FM030300 VRB03KT P6SM SCT250=



000
FTUS45 KGGW 020500
TAFSDY
TAF
KSDY 020520Z 0206/0306 VRB04KT P6SM SCT250
     FM021800 32011KT P6SM BKN080
     FM030300 VRB04KT P6SM SCT250
      AMD LTD TO CLD VIS AND WIND=



000
FTUS45 KGGW 020500
TAFGDV
TAF
KGDV 020520Z 0206/0306 VRB06KT P6SM SCT250
     FM021500 32010KT P6SM SCT080
      AMD LTD TO CLD VIS AND WIND=



000
FTUS45 KGGW 012300
TAFOLF
TAF
KOLF 012320Z 0200/0224 VRB03KT 5SM FU VCTS BKN080CB
     FM020500 VRB04KT 5SM FU SCT080
     FM021700 33010KT 5SM FU SCT070=



000
FTUS45 KGGW 012300
TAFGGW
TAF
KGGW 012320Z 0200/0224 33010KT 5SM FU VCTS BKN100CB
     FM020400 VRB06KT 5SM FU SCT080
     FM021500 31011KT 5SM FU BKN100=



000
FTUS45 KGGW 012300
TAFGDV
TAF
KGDV 012320Z 0200/0224 VRB06KT 6SM FU VCTS BKN080CB
     FM020600 VRB05KT 5SM FU BKN090
     FM020800 32011KT 5SM FU SCT080
      AMD LTD TO CLD VIS AND WIND=



000
FTUS45 KGGW 012300
TAFOLF
TAF
KOLF 012320Z 0200/0224 VRB03KT 5SM FU VCTS BKN080CB
     FM020500 VRB04KT 5SM FU SCT080
     FM021700 33010KT 5SM FU SCT070=



000
FTUS45 KGGW 012300
TAFGDV
TAF
KGDV 012320Z 0200/0224 VRB06KT 6SM FU VCTS BKN080CB
     FM020600 VRB05KT 5SM FU BKN090
     FM020800 32011KT 5SM FU SCT080
      AMD LTD TO CLD VIS AND WIND=



000
FTUS45 KGGW 012300
TAFOLF
TAF
KOLF 012320Z 0200/0224 VRB03KT 5SM FU VCTS BKN080CB
     FM020500 VRB04KT 5SM FU SCT080
     FM021700 33010KT 5SM FU SCT070=



000
FTUS45 KGGW 012300
TAFSDY
TAF
KSDY 012320Z 0200/0224 VRB06KT 5SM FU VCTS SCT080CB BKN100
     FM020700 VRB03KT 5SM FU BKN090
     FM021800 32011KT P6SM BKN100
      AMD LTD TO CLD VIS AND WIND=



000
FTUS45 KGGW 012300
TAFGGW
TAF
KGGW 012320Z 0200/0224 33010KT 5SM FU VCTS BKN100CB
     FM020400 VRB06KT 5SM FU SCT080
     FM021500 31011KT 5SM FU BKN100=



000
FTUS45 KGGW 012300
TAFGDV
TAF
KGDV 012320Z 0200/0224 VRB06KT 6SM FU VCTS BKN080CB
     FM020600 VRB05KT 5SM FU BKN090
     FM020800 32011KT 5SM FU SCT080
      AMD LTD TO CLD VIS AND WIND=



000
FTUS45 KGGW 012300
TAFGDV
TAF
KGDV 012320Z 0200/0224 VRB06KT 6SM FU VCTS BKN080CB
     FM020600 VRB05KT 5SM FU BKN090
     FM020800 32011KT 5SM FU SCT080
      AMD LTD TO CLD VIS AND WIND=



000
FTUS45 KGGW 012300
TAFSDY
TAF
KSDY 012320Z 0200/0224 VRB06KT 5SM FU VCTS SCT080CB BKN100
     FM020700 VRB03KT 5SM FU BKN090
     FM021800 32011KT P6SM BKN100
      AMD LTD TO CLD VIS AND WIND=



000
FTUS45 KGGW 012100 AAA
TAFOLF
TAF AMD
KOLF 012136Z 0122/0218 VRB03KT 3SM FU VCTS BKN060CB
      TEMPO 0122/0124 VRB10G20KT TS
     FM020500 VRB04KT 5SM FU SCT080=



000
FTUS45 KGGW 012100 AAA
TAFOLF
TAF AMD
KOLF 012136Z 0122/0218 VRB03KT 3SM FU VCTS BKN060CB
      TEMPO 0122/0124 VRB10G20KT TS
     FM020500 VRB04KT 5SM FU SCT080=



000
FTUS45 KGGW 012000 AAA
TAFGDV
TAF AMD
KGDV 012058Z 0121/0218 35008KT 6SM FU VCTS BKN060CB
     FM020600 VRB05KT 5SM FU BKN090
     FM020800 30008KT 5SM FU SCT080
      AMD LTD TO CLD VIS AND WIND=



000
FTUS45 KGGW 012000 AAA
TAFGDV
TAF AMD
KGDV 012058Z 0121/0218 35008KT 6SM FU VCTS BKN060CB
     FM020600 VRB05KT 5SM FU BKN090
     FM020800 30008KT 5SM FU SCT080
      AMD LTD TO CLD VIS AND WIND=



000
FTUS45 KGGW 011700 AAA
TAFSDY
TAF AMD
KSDY 011743Z 0118/0218 VRB03KT 6SM FU BKN060
     FM012000 02007KT 6SM FU VCTS BKN060CB
     FM020700 VRB03KT 5SM FU BKN090
     FM020900 VRB05KT 5SM FU SCT080
      AMD LTD TO CLD VIS AND WIND=



000
FTUS45 KGGW 011700
TAFGGW
TAF
KGGW 011720Z 0118/0218 33010KT 5SM FU VCTS BKN080CB
     FM020400 VRB06KT 5SM FU SCT080=



000
FTUS45 KGGW 011700
TAFOLF
TAF
KOLF 011720Z 0118/0218 VRB03KT 3SM FU VCTS BKN060CB
     FM020500 VRB04KT 5SM FU SCT080=



000
FTUS45 KGGW 011700
TAFGDV
TAF
KGDV 011720Z 0118/0218 VRB04KT 5SM FU SCT070
     FM012000 35008KT 5SM FU VCTS BKN060CB
     FM020600 VRB05KT 5SM FU BKN090
     FM020800 30008KT 5SM FU SCT080
      AMD LTD TO CLD VIS AND WIND=



000
FTUS45 KGGW 011700
TAFSDY
TAF
KSDY 011720Z 0118/0218 VRB03KT 5SM FU BKN060
     FM012000 02007KT 5SM FU VCTS BKN060CB
     FM020700 VRB03KT 5SM FU BKN090
     FM020900 VRB05KT 5SM FU SCT080
      AMD LTD TO CLD VIS AND WIND=



000
FTUS45 KGGW 011700
TAFGDV
TAF
KGDV 011720Z 0118/0218 VRB04KT 5SM FU SCT070
     FM012000 35008KT 5SM FU VCTS BKN060CB
     FM020600 VRB05KT 5SM FU BKN090
     FM020800 30008KT 5SM FU SCT080
      AMD LTD TO CLD VIS AND WIND=



000
FTUS45 KGGW 011700
TAFOLF
TAF
KOLF 011720Z 0118/0218 VRB03KT 3SM FU VCTS BKN060CB
     FM020500 VRB04KT 5SM FU SCT080=



000
FTUS45 KGGW 011700
TAFOLF
TAF
KOLF 011720Z 0118/0218 VRB03KT 3SM FU VCTS BKN060CB
     FM020500 VRB04KT 5SM FU SCT080=



000
FTUS45 KGGW 011700
TAFGGW
TAF
KGGW 011720Z 0118/0218 33010KT 5SM FU VCTS BKN080CB
     FM020400 VRB06KT 5SM FU SCT080=



000
FTUS45 KGGW 011700
TAFGDV
TAF
KGDV 011720Z 0118/0218 VRB04KT 5SM FU SCT070
     FM012000 35008KT 5SM FU VCTS BKN060CB
     FM020600 VRB05KT 5SM FU BKN090
     FM020800 30008KT 5SM FU SCT080
      AMD LTD TO CLD VIS AND WIND=



000
FTUS45 KGGW 011700
TAFSDY
TAF
KSDY 011720Z 0118/0218 VRB03KT 5SM FU BKN060
     FM012000 02007KT 5SM FU VCTS BKN060CB
     FM020700 VRB03KT 5SM FU BKN090
     FM020900 VRB05KT 5SM FU SCT080
      AMD LTD TO CLD VIS AND WIND=



000
FTUS45 KGGW 011500 CCA
TAFOLF
TAF COR
KOLF 011502Z 0115/0212 VRB06KT 2SM FU BKN015
     FM011800 VRB05KT P6SM SCT020 SCT100
     FM011900 VRB04KT P6SM VCTS BKN060CB
     FM020000 34011KT P6SM -SHRA BKN080
     FM020600 VRB04KT P6SM BKN150=



000
FTUS45 KGGW 011500 CCA
TAFOLF
TAF COR
KOLF 011502Z 0115/0212 VRB06KT 2SM FU BKN015
     FM011800 VRB05KT P6SM SCT020 SCT100
     FM011900 VRB04KT P6SM VCTS BKN060CB
     FM020000 34011KT P6SM -SHRA BKN080
     FM020600 VRB04KT P6SM BKN150=



000
FTUS45 KGGW 011500 CCA
TAFOLF
TAF COR
KOLF 011502Z 0115/0212 VRB06KT 2SM FU BKN015
     FM011800 VRB05KT P6SM SCT020 SCT100
     FM011900 VRB04KT P6SM VCTS BKN060CB
     FM020000 34011KT P6SM -SHRA BKN080
     FM020600 VRB04KT P6SM BKN150=



000
FTUS45 KGGW 011500 AAB
TAFSDY
TAF AMD
KSDY 011501Z 0115/0212 01007KT 5SM FU SCT005 BKN015
     FM011700 VRB05KT P6SM SCT015
     FM011800 VRB05KT P6SM VCTS BKN060CB
     FM020000 02007KT P6SM -TSRA BKN050CB
     FM020600 VRB03KT P6SM BKN100
      AMD LTD TO CLD VIS AND WIND=



000
FTUS45 KGGW 011500 AAA
TAFGDV
TAF AMD
KGDV 011501Z 0115/0212 36008KT 6SM FU BKN015
     FM011700 VRB05KT P6SM SCT010
     FM011800 VRB05KT P6SM VCTS SCT070CB
     FM020000 02008KT P6SM -TSRA BKN050CB
     FM020600 VRB05KT P6SM BKN100
      AMD LTD TO CLD VIS AND WIND=



000
FTUS45 KGGW 011500 AAA
TAFGDV
TAF AMD
KGDV 011501Z 0115/0212 36008KT 6SM FU BKN015
     FM011700 VRB05KT P6SM SCT010
     FM011800 VRB05KT P6SM VCTS SCT070CB
     FM020000 02008KT P6SM -TSRA BKN050CB
     FM020600 VRB05KT P6SM BKN100
      AMD LTD TO CLD VIS AND WIND=



000
FTUS45 KGGW 011500 AAA
TAFGDV
TAF AMD
KGDV 011501Z 0115/0212 36008KT 6SM FU BKN015
     FM011700 VRB05KT P6SM SCT010
     FM011800 VRB05KT P6SM VCTS SCT070CB
     FM020000 02008KT P6SM -TSRA BKN050CB
     FM020600 VRB05KT P6SM BKN100
      AMD LTD TO CLD VIS AND WIND=



000
FTUS45 KGGW 011500 AAA
TAFGDV
TAF AMD
KGDV 011501Z 0115/0212 36008KT 6SM FU BKN015
     FM011700 VRB05KT P6SM SCT010
     FM011800 VRB05KT P6SM VCTS SCT070CB
     FM020000 02008KT P6SM -TSRA BKN050CB
     FM020600 VRB05KT P6SM BKN100
      AMD LTD TO CLD VIS AND WIND=



000
FTUS45 KGGW 011500 AAB
TAFSDY
TAF AMD
KSDY 011501Z 0115/0212 01007KT 5SM FU SCT005 BKN015
     FM011700 VRB05KT P6SM SCT015
     FM011800 VRB05KT P6SM VCTS BKN060CB
     FM020000 02007KT P6SM -TSRA BKN050CB
     FM020600 VRB03KT P6SM BKN100
      AMD LTD TO CLD VIS AND WIND=



000
FTUS45 KGGW 011500 AAB
TAFOLF
TAF AMD
KOLF 011500Z 0115/0212 VRB06KT 2SM BR BKN015
     FM011800 VRB05KT P6SM SCT020 SCT100
     FM011900 VRB04KT P6SM VCTS BKN060CB
     FM020000 34011KT P6SM -SHRA BKN080
     FM020600 VRB04KT P6SM BKN150=



000
FTUS45 KGGW 011500 AAB
TAFGGW
TAF AMD
KGGW 011500Z 0115/0212 VRB05KT 5SM FU BKN015
     FM011700 VRB05KT P6SM SCT020 SCT100
     FM011800 VRB05KT P6SM VCTS BKN090CB
     FM020000 34011KT P6SM VCSH BKN090
     FM020600 VRB06KT P6SM BKN140=



000
FTUS45 KGGW 011500 AAB
TAFGGW
TAF AMD
KGGW 011500Z 0115/0212 VRB05KT 5SM FU BKN015
     FM011700 VRB05KT P6SM SCT020 SCT100
     FM011800 VRB05KT P6SM VCTS BKN090CB
     FM020000 34011KT P6SM VCSH BKN090
     FM020600 VRB06KT P6SM BKN140=



000
FTUS45 KGGW 011500 AAB
TAFOLF
TAF AMD
KOLF 011500Z 0115/0212 VRB06KT 2SM BR BKN015
     FM011800 VRB05KT P6SM SCT020 SCT100
     FM011900 VRB04KT P6SM VCTS BKN060CB
     FM020000 34011KT P6SM -SHRA BKN080
     FM020600 VRB04KT P6SM BKN150=



000
FTUS45 KGGW 011200 AAA
TAFSDY
TAF AMD
KSDY 011233Z 0113/0212 01007KT 2SM BR SCT005 BKN015
     FM011500 VRB05KT P6SM SCT015
     FM011800 VRB05KT P6SM VCTS BKN060CB
     FM020000 02007KT P6SM -TSRA BKN050CB
     FM020600 VRB03KT P6SM BKN100
      AMD LTD TO CLD VIS AND WIND=



000
FTUS45 KGGW 011200 AAA
TAFOLF
TAF AMD
KOLF 011233Z 0113/0212 VRB06KT 2SM BR BKN020
     FM011500 VRB05KT P6SM SCT020 SCT100
     FM011800 VRB04KT P6SM VCTS BKN060CB
     FM020000 34011KT P6SM -SHRA BKN080
     FM020600 VRB04KT P6SM BKN150=



000
FTUS45 KGGW 011200 AAA
TAFOLF
TAF AMD
KOLF 011233Z 0113/0212 VRB06KT 2SM BR BKN020
     FM011500 VRB05KT P6SM SCT020 SCT100
     FM011800 VRB04KT P6SM VCTS BKN060CB
     FM020000 34011KT P6SM -SHRA BKN080
     FM020600 VRB04KT P6SM BKN150=



000
FTUS45 KGGW 011200 AAA
TAFGGW
TAF AMD
KGGW 011232Z 0113/0212 VRB05KT 2SM BR BKN019
     FM011500 VRB05KT P6SM SCT020 SCT100
     FM011800 VRB05KT P6SM VCTS BKN090CB
     FM020000 34011KT P6SM VCSH BKN090
     FM020600 VRB06KT P6SM BKN140=



    US Dept of Commerce
    National Oceanic and Atmospheric Administration
    National Weather Service
    1325 East West Highway
    Silver Spring, MD 20910
    Page Author: NWS Internet Services Team
Disclaimer
Information Quality
Credits
Glossary
Privacy Policy
Freedom of Information Act (FOIA)
About Us
Career Opportunities